GRZLY19 LFPG-ELLX
Flight info
| Callsign | GRZLY19 |
|---|---|
| Flight time | 0h 33m |
| Altitude | 23000 |
| Route | DIKOL J10 SUIPE M163 MMD |
| Aircraft | A400/H-SDE3FGHIRWY/L4T |
Departure
| Time | 2026-05-05 14:22 |
|---|---|
| Airport | Charles de Gaulle International Airport (LFPG) |
Arrival
| Time | 2026-05-05 14:55 |
|---|---|
| Airport | Luxembourg-Findel International Airport (ELLX) |
| Time | Latitude | Longitude | Altitude | Speed | Heading |
|---|---|---|---|---|---|
| 2026-05-05 13:43 | 48.99676 | 2.53149 | 364 ft | 0 kts | 266° |
| 2026-05-05 14:04 | 48.99676 | 2.53161 | 365 ft | 2 kts | 269° |
| 2026-05-05 14:05 | 48.99675 | 2.53186 | 366 ft | 2 kts | 280° |
| 2026-05-05 14:05 | 48.99671 | 2.53210 | 370 ft | 2 kts | 291° |
| 2026-05-05 14:05 | 48.99664 | 2.53233 | 369 ft | 2 kts | 303° |
| 2026-05-05 14:05 | 48.99654 | 2.53253 | 368 ft | 2 kts | 315° |
| 2026-05-05 14:06 | 48.99642 | 2.53269 | 368 ft | 2 kts | 324° |
| 2026-05-05 14:06 | 48.99628 | 2.53282 | 364 ft | 2 kts | 333° |
| 2026-05-05 14:06 | 48.99613 | 2.53293 | 365 ft | 2 kts | 339° |
| 2026-05-05 14:06 | 48.99597 | 2.53301 | 370 ft | 2 kts | 345° |
| 2026-05-05 14:07 | 48.99581 | 2.53306 | 364 ft | 2 kts | 349° |
| 2026-05-05 14:07 | 48.99566 | 2.53310 | 369 ft | 2 kts | 353° |
| 2026-05-05 14:07 | 48.99557 | 2.53312 | 370 ft | 1 kts | 355° |
| 2026-05-05 14:07 | 48.99556 | 2.53312 | 364 ft | 0 kts | 355° |
| 2026-05-05 14:16 | 48.99561 | 2.53311 | 369 ft | 2 kts | 355° |
| 2026-05-05 14:16 | 48.99584 | 2.53317 | 369 ft | 5 kts | 20° |
| 2026-05-05 14:17 | 48.99610 | 2.53374 | 368 ft | 8 kts | 65° |
| 2026-05-05 14:17 | 48.99652 | 2.53449 | 366 ft | 10 kts | 42° |
| 2026-05-05 14:17 | 48.99704 | 2.53515 | 371 ft | 10 kts | 39° |
| 2026-05-05 14:17 | 48.99753 | 2.53583 | 367 ft | 9 kts | 41° |
| 2026-05-05 14:18 | 48.99797 | 2.53648 | 371 ft | 8 kts | 54° |
| 2026-05-05 14:18 | 48.99805 | 2.53738 | 364 ft | 10 kts | 88° |
| 2026-05-05 14:18 | 48.99811 | 2.53861 | 366 ft | 14 kts | 85° |
| 2026-05-05 14:18 | 48.99818 | 2.54022 | 366 ft | 16 kts | 85° |
| 2026-05-05 14:19 | 48.99830 | 2.54216 | 370 ft | 21 kts | 86° |
| 2026-05-05 14:19 | 48.99842 | 2.54451 | 364 ft | 24 kts | 86° |
| 2026-05-05 14:19 | 48.99855 | 2.54702 | 367 ft | 15 kts | 91° |
| 2026-05-05 14:19 | 48.99828 | 2.54819 | 367 ft | 12 kts | 133° |
| 2026-05-05 14:20 | 48.99744 | 2.54880 | 368 ft | 16 kts | 133° |
| 2026-05-05 14:20 | 48.99692 | 2.55035 | 370 ft | 17 kts | 116° |
| 2026-05-05 14:20 | 48.99665 | 2.55121 | 370 ft | 4 kts | 116° |
| 2026-05-05 14:20 | 48.99664 | 2.55123 | 370 ft | 0 kts | 116° |
| 2026-05-05 14:21 | 48.99659 | 2.55140 | 371 ft | 6 kts | 116° |
| 2026-05-05 14:21 | 48.99618 | 2.55263 | 366 ft | 18 kts | 117° |
| 2026-05-05 14:21 | 48.99582 | 2.55484 | 366 ft | 28 kts | 85° |
| 2026-05-05 14:22 | 48.99624 | 2.56298 | 373 ft | 138 kts | 85° |
| 2026-05-05 14:22 | 48.99713 | 2.58126 | 630 ft | 197 kts | 84° |
| 2026-05-05 14:22 | 48.99768 | 2.60345 | 1320 ft | 217 kts | 89° |
| 2026-05-05 14:22 | 48.99779 | 2.62776 | 2266 ft | 236 kts | 83° |
| 2026-05-05 14:23 | 48.99950 | 2.65233 | 3881 ft | 229 kts | 83° |
| 2026-05-05 14:23 | 49.00127 | 2.67544 | 5692 ft | 218 kts | 82° |
| 2026-05-05 14:23 | 49.00287 | 2.69831 | 7587 ft | 207 kts | 83° |
| 2026-05-05 14:23 | 49.00423 | 2.71963 | 9532 ft | 198 kts | 83° |
| 2026-05-05 14:24 | 49.00541 | 2.73980 | 11336 ft | 188 kts | 84° |
| 2026-05-05 14:24 | 49.00642 | 2.75793 | 12712 ft | 152 kts | 86° |
| 2026-05-05 14:24 | 49.00727 | 2.77340 | 13546 ft | 142 kts | 86° |
| 2026-05-05 14:24 | 49.00810 | 2.78936 | 14335 ft | 165 kts | 87° |
| 2026-05-05 14:25 | 49.00908 | 2.80887 | 15146 ft | 207 kts | 87° |
| 2026-05-05 14:25 | 49.01029 | 2.83300 | 15934 ft | 248 kts | 87° |
| 2026-05-05 14:25 | 49.01172 | 2.86087 | 16741 ft | 279 kts | 87° |
| 2026-05-05 14:25 | 49.01330 | 2.89176 | 17562 ft | 303 kts | 87° |
| 2026-05-05 14:26 | 49.01514 | 2.92458 | 18296 ft | 319 kts | 85° |
| 2026-05-05 14:26 | 49.01841 | 2.95851 | 18686 ft | 328 kts | 82° |
| 2026-05-05 14:26 | 49.02243 | 2.99356 | 18799 ft | 353 kts | 82° |
| 2026-05-05 14:26 | 49.02686 | 3.03119 | 18801 ft | 367 kts | 81° |
| 2026-05-05 14:27 | 49.03140 | 3.06974 | 18805 ft | 371 kts | 81° |
| 2026-05-05 14:27 | 49.03595 | 3.10857 | 18814 ft | 376 kts | 81° |
| 2026-05-05 14:27 | 49.04057 | 3.14841 | 19279 ft | 384 kts | 82° |
| 2026-05-05 14:27 | 49.04516 | 3.18817 | 20200 ft | 378 kts | 82° |
| 2026-05-05 14:28 | 49.04971 | 3.22769 | 20957 ft | 380 kts | 82° |
| 2026-05-05 14:28 | 49.05426 | 3.26753 | 21645 ft | 384 kts | 82° |
| 2026-05-05 14:28 | 49.05884 | 3.30778 | 22303 ft | 387 kts | 82° |
| 2026-05-05 14:28 | 49.06344 | 3.34837 | 22718 ft | 391 kts | 82° |
| 2026-05-05 14:29 | 49.06808 | 3.38941 | 22806 ft | 393 kts | 82° |
| 2026-05-05 14:29 | 49.07272 | 3.43051 | 22803 ft | 393 kts | 82° |
| 2026-05-05 14:29 | 49.07734 | 3.47160 | 22801 ft | 393 kts | 82° |
| 2026-05-05 14:29 | 49.08193 | 3.51265 | 22794 ft | 393 kts | 82° |
| 2026-05-05 14:30 | 49.08648 | 3.55372 | 22790 ft | 393 kts | 83° |
| 2026-05-05 14:30 | 49.09087 | 3.59502 | 22801 ft | 395 kts | 83° |
| 2026-05-05 14:30 | 49.09519 | 3.63637 | 22788 ft | 395 kts | 83° |
| 2026-05-05 14:30 | 49.09951 | 3.67783 | 22790 ft | 396 kts | 83° |
| 2026-05-05 14:31 | 49.10386 | 3.71971 | 22795 ft | 403 kts | 83° |
| 2026-05-05 14:31 | 49.10826 | 3.76223 | 22800 ft | 407 kts | 83° |
| 2026-05-05 14:31 | 49.11268 | 3.80504 | 22800 ft | 408 kts | 83° |
| 2026-05-05 14:31 | 49.11708 | 3.84782 | 22794 ft | 409 kts | 83° |
| 2026-05-05 14:32 | 49.12148 | 3.89067 | 22804 ft | 409 kts | 83° |
| 2026-05-05 14:32 | 49.12586 | 3.93358 | 22795 ft | 409 kts | 83° |
| 2026-05-05 14:32 | 49.13017 | 3.97589 | 22799 ft | 409 kts | 83° |
| 2026-05-05 14:32 | 49.13528 | 4.01856 | 22801 ft | 411 kts | 78° |
| 2026-05-05 14:33 | 49.14569 | 4.05930 | 22805 ft | 415 kts | 63° |
| 2026-05-05 14:33 | 49.16145 | 4.09636 | 22799 ft | 417 kts | 57° |
| 2026-05-05 14:33 | 49.17908 | 4.13151 | 22804 ft | 418 kts | 53° |
| 2026-05-05 14:33 | 49.19767 | 4.16567 | 22798 ft | 418 kts | 52° |
| 2026-05-05 14:34 | 49.21658 | 4.19946 | 22805 ft | 418 kts | 51° |
| 2026-05-05 14:34 | 49.23541 | 4.23338 | 22795 ft | 418 kts | 53° |
| 2026-05-05 14:34 | 49.24934 | 4.26727 | 22803 ft | 415 kts | 66° |
| 2026-05-05 14:34 | 49.25935 | 4.30851 | 22802 ft | 413 kts | 75° |
| 2026-05-05 14:35 | 49.26697 | 4.34983 | 22803 ft | 412 kts | 77° |
| 2026-05-05 14:35 | 49.26826 | 4.35726 | 22799 ft | 412 kts | 77° |
| 2026-05-05 14:35 | 49.27141 | 4.37577 | 22801 ft | 411 kts | 77° |
| 2026-05-05 14:36 | 49.27367 | 4.38927 | 22803 ft | 411 kts | 78° |
| 2026-05-05 14:36 | 49.27636 | 4.40546 | 22804 ft | 411 kts | 78° |
| 2026-05-05 14:36 | 49.28334 | 4.44791 | 22797 ft | 411 kts | 78° |
| 2026-05-05 14:36 | 49.29028 | 4.49042 | 22803 ft | 411 kts | 78° |
| 2026-05-05 14:37 | 49.29719 | 4.53298 | 22800 ft | 411 kts | 78° |
| 2026-05-05 14:37 | 49.30409 | 4.57558 | 22802 ft | 412 kts | 78° |
| 2026-05-05 14:37 | 49.31096 | 4.61812 | 22802 ft | 412 kts | 78° |
| 2026-05-05 14:37 | 49.31782 | 4.66073 | 22803 ft | 412 kts | 78° |
| 2026-05-05 14:38 | 49.32466 | 4.70333 | 22815 ft | 412 kts | 78° |
| 2026-05-05 14:38 | 49.33149 | 4.74598 | 22809 ft | 412 kts | 78° |
| 2026-05-05 14:38 | 49.33829 | 4.78856 | 22803 ft | 411 kts | 78° |
| 2026-05-05 14:38 | 49.34508 | 4.83116 | 22803 ft | 411 kts | 78° |
| 2026-05-05 14:39 | 49.35185 | 4.87374 | 22808 ft | 411 kts | 78° |
| 2026-05-05 14:39 | 49.35861 | 4.91638 | 22799 ft | 411 kts | 78° |
| 2026-05-05 14:39 | 49.36537 | 4.95908 | 22806 ft | 412 kts | 78° |
| 2026-05-05 14:39 | 49.37209 | 5.00172 | 22813 ft | 412 kts | 79° |
| 2026-05-05 14:40 | 49.37882 | 5.04448 | 22813 ft | 412 kts | 79° |
| 2026-05-05 14:40 | 49.38554 | 5.08732 | 22813 ft | 412 kts | 79° |
| 2026-05-05 14:40 | 49.39284 | 5.12985 | 22812 ft | 413 kts | 76° |
| 2026-05-05 14:40 | 49.40157 | 5.17177 | 22806 ft | 404 kts | 74° |
| 2026-05-05 14:41 | 49.41030 | 5.21176 | 22819 ft | 400 kts | 74° |
| 2026-05-05 14:41 | 49.41931 | 5.25309 | 22820 ft | 405 kts | 74° |
| 2026-05-05 14:41 | 49.42808 | 5.29321 | 22823 ft | 402 kts | 75° |
| 2026-05-05 14:41 | 49.43699 | 5.33439 | 22827 ft | 420 kts | 74° |
| 2026-05-05 14:42 | 49.44634 | 5.37766 | 22818 ft | 433 kts | 75° |
| 2026-05-05 14:42 | 49.45592 | 5.42204 | 22823 ft | 437 kts | 75° |
| 2026-05-05 14:42 | 49.46534 | 5.46549 | 22872 ft | 421 kts | 75° |
| 2026-05-05 14:42 | 49.47445 | 5.50809 | 22873 ft | 420 kts | 75° |
| 2026-05-05 14:43 | 49.48304 | 5.54952 | 22624 ft | 394 kts | 78° |
| 2026-05-05 14:43 | 49.48583 | 5.58990 | 22261 ft | 369 kts | 94° |
| 2026-05-05 14:43 | 49.48458 | 5.62827 | 21878 ft | 350 kts | 97° |
| 2026-05-05 14:43 | 49.48276 | 5.66408 | 20916 ft | 321 kts | 98° |
| 2026-05-05 14:44 | 49.48095 | 5.69751 | 19273 ft | 309 kts | 98° |
| 2026-05-05 14:44 | 49.47906 | 5.73092 | 17238 ft | 323 kts | 98° |
| 2026-05-05 14:44 | 49.47685 | 5.76723 | 15064 ft | 359 kts | 98° |
| 2026-05-05 14:44 | 49.47425 | 5.80706 | 12952 ft | 390 kts | 98° |
| 2026-05-05 14:45 | 49.47161 | 5.84665 | 13171 ft | 346 kts | 98° |
| 2026-05-05 14:45 | 49.46943 | 5.88082 | 13869 ft | 297 kts | 98° |
| 2026-05-05 14:45 | 49.46767 | 5.91003 | 14552 ft | 251 kts | 98° |
| 2026-05-05 14:45 | 49.46629 | 5.93452 | 15219 ft | 208 kts | 99° |
| 2026-05-05 14:46 | 49.46542 | 5.95445 | 15639 ft | 172 kts | 97° |
| 2026-05-05 14:46 | 49.46510 | 5.97277 | 15410 ft | 175 kts | 97° |
| 2026-05-05 14:46 | 49.46460 | 5.99206 | 14990 ft | 186 kts | 98° |
| 2026-05-05 14:46 | 49.46389 | 6.01252 | 14580 ft | 197 kts | 96° |
| 2026-05-05 14:47 | 49.46465 | 6.03432 | 14115 ft | 212 kts | 83° |
| 2026-05-05 14:47 | 49.46860 | 6.05687 | 13545 ft | 225 kts | 75° |
| 2026-05-05 14:47 | 49.47391 | 6.08032 | 12875 ft | 239 kts | 73° |
| 2026-05-05 14:47 | 49.47969 | 6.10506 | 12300 ft | 252 kts | 73° |
| 2026-05-05 14:48 | 49.48572 | 6.13103 | 11653 ft | 263 kts | 73° |
| 2026-05-05 14:48 | 49.49194 | 6.15810 | 10921 ft | 274 kts | 73° |
| 2026-05-05 14:48 | 49.49839 | 6.18632 | 10135 ft | 285 kts | 73° |
| 2026-05-05 14:48 | 49.50506 | 6.21565 | 9257 ft | 295 kts | 72° |
| 2026-05-05 14:49 | 49.51186 | 6.24563 | 8516 ft | 297 kts | 72° |
| 2026-05-05 14:49 | 49.51872 | 6.27538 | 7886 ft | 294 kts | 70° |
| 2026-05-05 14:49 | 49.52861 | 6.30275 | 7251 ft | 293 kts | 56° |
| 2026-05-05 14:49 | 49.54118 | 6.32737 | 6675 ft | 291 kts | 51° |
| 2026-05-05 14:50 | 49.54972 | 6.34307 | 6315 ft | 289 kts | 51° |
| 2026-05-05 14:50 | 49.56264 | 6.36661 | 5739 ft | 286 kts | 51° |
| 2026-05-05 14:50 | 49.57543 | 6.38998 | 5169 ft | 285 kts | 51° |
| 2026-05-05 14:50 | 49.58796 | 6.41296 | 4862 ft | 274 kts | 51° |
| 2026-05-05 14:51 | 49.59992 | 6.43497 | 4654 ft | 262 kts | 51° |
| 2026-05-05 14:51 | 49.61140 | 6.45619 | 4506 ft | 252 kts | 51° |
| 2026-05-05 14:51 | 49.62252 | 6.47676 | 4279 ft | 248 kts | 51° |
| 2026-05-05 14:51 | 49.63998 | 6.49888 | 3887 ft | 246 kts | 22° |
| 2026-05-05 14:52 | 49.65124 | 6.50216 | 3680 ft | 244 kts | 357° |
| 2026-05-05 14:52 | 49.66734 | 6.49523 | 3320 ft | 240 kts | 333° |
| 2026-05-05 14:52 | 49.68184 | 6.48310 | 2988 ft | 234 kts | 328° |
| 2026-05-05 14:52 | 49.69470 | 6.46929 | 2867 ft | 213 kts | 314° |
| 2026-05-05 14:53 | 49.70220 | 6.45169 | 2943 ft | 186 kts | 282° |
| 2026-05-05 14:53 | 49.70262 | 6.43274 | 2971 ft | 170 kts | 259° |
| 2026-05-05 14:53 | 49.70009 | 6.41543 | 2973 ft | 160 kts | 251° |
| 2026-05-05 14:53 | 49.69594 | 6.40022 | 2979 ft | 151 kts | 242° |
| 2026-05-05 14:54 | 49.69108 | 6.38643 | 2973 ft | 141 kts | 240° |
| 2026-05-05 14:54 | 49.68654 | 6.37398 | 2977 ft | 121 kts | 239° |
| 2026-05-05 14:54 | 49.68256 | 6.36327 | 2944 ft | 113 kts | 239° |
| 2026-05-05 14:54 | 49.67949 | 6.35402 | 3294 ft | 105 kts | 244° |
| 2026-05-05 14:55 | 49.67736 | 6.34407 | 4042 ft | 100 kts | 255° |
| 2026-05-05 14:55 | 49.67563 | 6.33344 | 4893 ft | 93 kts | 239° |
| 2026-05-05 14:55 | 49.67293 | 6.32441 | 3551 ft | 105 kts | 231° |
| 2026-05-05 14:55 | 49.66904 | 6.31364 | 1333 ft | 0 kts | 227° |
| 2026-05-05 14:56 | 49.66675 | 6.30669 | 2230 ft | 157 kts | 245° |
| 2026-05-05 14:56 | 49.66192 | 6.29030 | 2245 ft | 169 kts | 242° |
| 2026-05-05 14:56 | 49.65561 | 6.27500 | 2341 ft | 163 kts | 230° |
| 2026-05-05 14:56 | 49.64932 | 6.26281 | 2073 ft | 129 kts | 234° |
| 2026-05-05 14:57 | 49.64449 | 6.25265 | 1596 ft | 110 kts | 232° |
| 2026-05-05 14:57 | 49.63953 | 6.24291 | 1371 ft | 115 kts | 232° |
| 2026-05-05 14:57 | 49.63443 | 6.23396 | 1261 ft | 100 kts | 244° |
| 2026-05-05 14:57 | 49.63298 | 6.22996 | 1232 ft | 0 kts | 243° |
| 2026-05-05 14:59 | 49.63298 | 6.22997 | 1232 ft | 0 kts | 243° |